Steeleburg, Virginia
Current Conditions -  °F | °C
As of 7:55 PM on Monday 26 Jan 2015 (Local Time) from KJFZ Reporting Station
Light Snow Light Snow  
Wind Chill: 14°   Ceiling: 300
Heat Index: 24°   Visibility: 5mi
Dew Point: 21°   Wind: 9mph
Humidity: 91%   Direction: 320°NW
Pressure: 29.8"   Gusts: 16mph
Location:  37.0714°N, 81.7762°W
Report Text: KJFZ 270055Z AUTO 32008G14KT 5SM -SN OVC003 M05/M06 A2980 RMK AO2 T10471059
Loading
Personal Weather Stations






























Interactive Weather Map New forecast layout! Learn more

10-Day Weather Forecast

Advertisements
Track Severe Weather on mobile